createdAt,value
2023-04-23T00:00:12.862Z,18.65
2023-04-23T00:01:18.120Z,10.77
2023-04-23T00:02:23.263Z,8.93
2023-04-23T00:03:29.510Z,13.32
2023-04-23T00:04:36.814Z,8.93
2023-04-23T00:05:42.490Z,9.93
2023-04-23T00:06:47.217Z,10.20
2023-04-23T00:07:51.402Z,16.02
2023-04-23T00:08:57.147Z,13.93
2023-04-23T00:10:04.009Z,10.35
2023-04-23T00:11:07.597Z,11.88
2023-04-23T00:12:12.377Z,10.65
2023-04-23T00:13:15.382Z,13.30
2023-04-23T00:14:21.703Z,12.15
2023-04-23T00:15:24.933Z,11.50
2023-04-23T00:16:29.355Z,13.40
2023-04-23T00:17:32.104Z,14.20
2023-04-23T00:18:35.772Z,11.68
2023-04-23T00:20:41.702Z,12.32
2023-04-23T00:21:45.940Z,8.93
2023-04-23T00:22:49.576Z,12.55
2023-04-23T00:24:55.553Z,12.18
2023-04-23T00:27:02.167Z,13.23
2023-04-23T00:28:05.262Z,12.73
2023-04-23T00:29:08.730Z,14.70
2023-04-23T00:30:11.939Z,12.98
2023-04-23T00:31:15.770Z,10.90
2023-04-23T00:32:18.704Z,11.65
2023-04-23T00:33:22.359Z,12.57
2023-04-23T00:34:25.049Z,11.52
2023-04-23T00:35:28.629Z,15.32
2023-04-23T00:36:31.624Z,15.52
2023-04-23T00:37:36.965Z,12.80
2023-04-23T00:38:39.712Z,13.63
2023-04-23T00:39:43.394Z,16.35
2023-04-23T00:40:46.115Z,16.25
2023-04-23T00:41:50.167Z,13.57
2023-04-23T00:42:54.088Z,13.35
2023-04-23T00:43:58.673Z,18.48
2023-04-23T00:45:02.396Z,13.25
2023-04-23T00:46:06.459Z,14.07
2023-04-23T00:47:09.610Z,18.60
2023-04-23T00:48:13.842Z,16.58
2023-04-23T00:49:17.781Z,15.15
2023-04-23T00:51:24.816Z,11.50
2023-04-23T00:52:29.322Z,12.20
2023-04-23T00:53:45.758Z,14.55
2023-04-23T00:54:49.500Z,12.48
2023-04-23T00:55:53.079Z,9.93
2023-04-23T00:56:58.192Z,9.90
2023-04-23T00:58:01.350Z,8.48
2023-04-23T00:59:05.652Z,8.75
2023-04-23T01:00:10.083Z,11.70
2023-04-23T01:01:14.421Z,6.43
2023-04-23T01:02:17.868Z,12.20
2023-04-23T01:03:23.299Z,13.40
2023-04-23T01:04:29.726Z,13.88
2023-04-23T01:05:33.972Z,12.05
2023-04-23T01:06:36.555Z,12.93
2023-04-23T01:07:40.482Z,12.85
2023-04-23T01:08:45.834Z,17.00
2023-04-23T01:09:51.955Z,14.80
2023-04-23T01:10:54.850Z,16.55
2023-04-23T01:11:59.279Z,13.48
2023-04-23T01:13:01.988Z,15.23
2023-04-23T01:14:06.138Z,16.48
2023-04-23T01:15:10.125Z,15.27
2023-04-23T01:16:14.063Z,13.82
2023-04-23T01:17:16.704Z,17.60
2023-04-23T01:18:20.442Z,14.38
2023-04-23T01:19:22.909Z,12.75
2023-04-23T01:20:26.889Z,17.60
2023-04-23T01:21:30.062Z,16.25
2023-04-23T01:22:36.553Z,14.10
2023-04-23T01:23:39.142Z,12.52
2023-04-23T01:24:44.039Z,10.85
2023-04-23T01:25:47.018Z,13.35
2023-04-23T01:26:50.977Z,15.85
2023-04-23T01:27:53.680Z,14.68
2023-04-23T01:28:57.790Z,15.88
2023-04-23T01:30:00.438Z,15.50
2023-04-23T01:31:04.646Z,13.98
2023-04-23T01:32:08.509Z,13.38
2023-04-23T01:33:12.629Z,13.00
2023-04-23T01:34:15.919Z,16.25
2023-04-23T01:35:19.637Z,14.55
2023-04-23T01:36:23.835Z,13.32
2023-04-23T01:37:29.186Z,15.27
2023-04-23T01:38:34.597Z,16.70
2023-04-23T01:39:38.727Z,17.25
2023-04-23T01:40:41.308Z,19.13
2023-04-23T01:41:45.457Z,14.52
2023-04-23T01:42:48.731Z,13.35
2023-04-23T01:43:52.575Z,17.33
2023-04-23T01:45:59.635Z,13.95
2023-04-23T01:47:02.458Z,15.10
2023-04-23T01:48:06.506Z,17.48
2023-04-23T01:49:09.532Z,13.90
2023-04-23T01:50:13.385Z,13.93
2023-04-23T01:51:16.287Z,14.38
2023-04-23T01:52:19.989Z,12.57
2023-04-23T01:53:22.570Z,14.93
2023-04-23T01:54:27.811Z,14.38
2023-04-23T01:55:31.219Z,15.13
2023-04-23T01:56:36.314Z,15.25
2023-04-23T01:57:39.056Z,13.02
2023-04-23T01:58:42.765Z,12.48
2023-04-23T01:59:45.593Z,14.55
2023-04-23T02:00:49.112Z,14.02
2023-04-23T02:01:51.763Z,11.65
2023-04-23T02:02:55.520Z,11.48
2023-04-23T02:03:59.243Z,14.05
2023-04-23T02:05:04.996Z,15.45
2023-04-23T02:06:08.096Z,7.72
2023-04-23T02:07:11.812Z,13.15
2023-04-23T02:09:17.770Z,11.45
2023-04-23T02:11:25.178Z,10.80
2023-04-23T02:12:28.163Z,9.80
2023-04-23T02:13:31.944Z,11.25
2023-04-23T02:14:34.881Z,12.60
2023-04-23T02:15:38.938Z,10.20
2023-04-23T02:16:41.391Z,11.10
2023-04-23T02:17:45.346Z,11.32
2023-04-23T02:19:51.576Z,8.95
2023-04-23T02:20:55.022Z,11.48
2023-04-23T02:21:58.596Z,12.60
2023-04-23T02:23:01.596Z,9.30
2023-04-23T02:24:06.425Z,11.93
2023-04-23T02:25:09.765Z,9.95
2023-04-23T02:26:14.884Z,11.30
2023-04-23T02:27:17.784Z,12.45
2023-04-23T02:28:21.462Z,11.50
2023-04-23T02:29:24.293Z,15.18
2023-04-23T02:30:28.161Z,10.55
2023-04-23T02:31:30.928Z,10.85
2023-04-23T02:32:34.612Z,13.15
2023-04-23T02:33:37.284Z,10.85
2023-04-23T02:34:41.377Z,11.48
2023-04-23T02:35:44.297Z,11.95
2023-04-23T02:36:47.843Z,12.65
2023-04-23T02:38:54.378Z,10.93
2023-04-23T02:39:57.128Z,14.88
2023-04-23T02:41:00.664Z,9.57
2023-04-23T02:42:04.888Z,13.60
2023-04-23T02:43:08.620Z,12.82
2023-04-23T02:44:11.427Z,12.05
2023-04-23T02:45:15.215Z,12.02
2023-04-23T02:46:17.989Z,10.38
2023-04-23T02:47:21.615Z,10.88
2023-04-23T02:50:30.113Z,10.52
2023-04-23T02:51:33.906Z,9.55
2023-04-23T02:53:39.910Z,8.82
2023-04-23T02:54:42.699Z,10.02
2023-04-23T02:55:46.515Z,11.85
2023-04-23T02:57:53.886Z,7.90
2023-04-23T02:58:56.535Z,9.40
2023-04-23T03:00:00.165Z,8.45
2023-04-23T03:01:03.470Z,13.00
2023-04-23T03:02:07.125Z,9.95
2023-04-23T03:03:12.311Z,9.95
2023-04-23T03:04:16.355Z,12.65
2023-04-23T03:06:22.581Z,11.80
2023-04-23T03:07:25.268Z,9.95
2023-04-23T03:08:28.942Z,8.93
2023-04-23T03:10:34.868Z,9.80
2023-04-23T03:12:40.943Z,10.23
2023-04-23T03:13:44.921Z,10.32
2023-04-23T03:14:48.589Z,9.55
2023-04-23T03:15:51.571Z,8.70
2023-04-23T03:16:55.195Z,8.55
2023-04-23T03:19:01.609Z,13.30
2023-04-23T03:20:04.863Z,11.15
2023-04-23T03:21:08.472Z,10.55
2023-04-23T03:22:11.192Z,15.20
2023-04-23T03:23:15.073Z,8.30
2023-04-23T03:24:18.085Z,8.35
2023-04-23T03:25:23.976Z,12.15
2023-04-23T03:26:27.763Z,9.25
2023-04-23T03:27:30.427Z,9.10
2023-04-23T03:28:34.341Z,8.43
2023-04-23T03:29:38.278Z,12.50
2023-04-23T03:30:42.067Z,11.60
2023-04-23T03:32:47.972Z,12.20
2023-04-23T03:33:50.628Z,10.38
2023-04-23T03:34:54.136Z,7.88
2023-04-23T03:35:56.720Z,11.95
2023-04-23T03:37:00.326Z,10.10
2023-04-23T03:39:06.305Z,10.65
2023-04-23T03:41:13.158Z,9.60
2023-04-23T03:43:19.160Z,8.38
2023-04-23T03:45:26.740Z,9.75
2023-04-23T03:46:29.369Z,10.15
2023-04-23T03:47:33.134Z,6.57
2023-04-23T03:48:36.189Z,6.45
2023-04-23T03:49:40.492Z,7.63
2023-04-23T03:50:43.064Z,6.63
2023-04-23T03:51:46.536Z,6.50
2023-04-23T03:53:52.589Z,6.80
2023-04-23T03:55:58.420Z,8.38
2023-04-23T03:57:01.901Z,7.45
2023-04-23T03:58:05.632Z,7.78
2023-04-23T03:59:08.404Z,6.55
2023-04-23T04:00:13.227Z,11.50
2023-04-23T04:01:18.674Z,7.82
2023-04-23T04:02:22.346Z,7.07
2023-04-23T04:03:25.212Z,6.47
2023-04-23T04:04:30.030Z,7.00
2023-04-23T04:05:32.999Z,7.03
2023-04-23T04:06:36.512Z,9.50
2023-04-23T04:07:39.558Z,7.65
2023-04-23T04:08:43.163Z,11.65
2023-04-23T04:10:51.011Z,8.25
2023-04-23T04:12:57.875Z,9.18
2023-04-23T04:14:00.542Z,7.05
2023-04-23T04:15:04.546Z,11.20
2023-04-23T04:16:09.913Z,6.32
2023-04-23T04:17:16.328Z,7.22
2023-04-23T04:18:20.181Z,5.60
2023-04-23T04:19:22.775Z,5.72
2023-04-23T04:20:29.336Z,6.05
2023-04-23T04:21:32.630Z,5.10
2023-04-23T04:22:36.460Z,7.28
2023-04-23T04:23:39.981Z,5.35
2023-04-23T04:24:43.998Z,5.90
2023-04-23T04:25:47.048Z,6.20
2023-04-23T04:26:52.821Z,6.60
2023-04-23T04:27:55.327Z,5.78
2023-04-23T04:28:59.743Z,5.00
2023-04-23T04:30:02.828Z,9.25
2023-04-23T04:31:11.104Z,5.13
2023-04-23T04:32:15.045Z,6.88
2023-04-23T04:33:19.155Z,4.22
2023-04-23T04:34:21.816Z,9.80
2023-04-23T04:35:25.520Z,4.30
2023-04-23T04:37:32.708Z,3.58
2023-04-23T04:38:38.145Z,3.45
2023-04-23T04:39:41.858Z,6.70
2023-04-23T04:40:44.726Z,5.53
2023-04-23T04:41:48.706Z,5.15
2023-04-23T04:42:53.189Z,5.07
2023-04-23T04:43:56.974Z,3.08
2023-04-23T04:44:59.890Z,5.97
2023-04-23T04:46:07.204Z,3.95
2023-04-23T04:47:11.358Z,5.63
2023-04-23T04:49:19.768Z,3.60
2023-04-23T04:50:24.671Z,3.53
2023-04-23T04:51:28.687Z,4.95
2023-04-23T04:52:32.732Z,5.85
2023-04-23T04:53:36.248Z,3.78
2023-04-23T04:55:42.577Z,4.07
2023-04-23T04:56:46.215Z,5.70
2023-04-23T04:57:48.867Z,4.28
2023-04-23T04:58:52.642Z,5.78
2023-04-23T05:01:01.562Z,5.75
2023-04-23T05:02:04.395Z,5.13
2023-04-23T05:03:08.938Z,5.45
2023-04-23T05:04:14.459Z,7.80
2023-04-23T05:05:18.340Z,6.22
2023-04-23T05:06:20.900Z,6.55
2023-04-23T05:07:24.438Z,6.10
2023-04-23T05:09:30.520Z,6.85
2023-04-23T05:10:33.115Z,6.88
2023-04-23T05:11:37.188Z,6.00
2023-04-23T05:12:41.775Z,6.68
2023-04-23T05:13:46.225Z,5.50
2023-04-23T05:14:48.938Z,5.63
2023-04-23T05:15:52.645Z,5.95
2023-04-23T05:16:55.251Z,5.68
2023-04-23T05:17:59.144Z,5.50
2023-04-23T05:19:01.947Z,4.90
2023-04-23T05:20:10.651Z,6.55
2023-04-23T05:21:13.237Z,4.72
2023-04-23T05:22:18.437Z,5.55
2023-04-23T05:23:21.200Z,4.53
2023-04-23T05:24:25.291Z,7.95
2023-04-23T05:25:27.961Z,3.50
2023-04-23T05:26:31.528Z,3.78
2023-04-23T05:28:37.946Z,4.97
2023-04-23T05:29:41.654Z,4.60
2023-04-23T05:31:47.752Z,6.32
2023-04-23T05:32:51.596Z,9.95
2023-04-23T05:34:57.677Z,4.38
2023-04-23T05:36:01.719Z,5.78
2023-04-23T05:37:06.119Z,6.45
2023-04-23T05:38:09.495Z,6.32
2023-04-23T05:39:13.334Z,9.20
2023-04-23T05:40:16.291Z,5.18
2023-04-23T05:41:19.848Z,5.20
2023-04-23T05:42:22.504Z,5.35
2023-04-23T05:43:26.087Z,4.32
2023-04-23T05:45:32.011Z,7.15
2023-04-23T05:46:43.639Z,7.82
2023-04-23T05:47:47.355Z,5.72
2023-04-23T05:48:49.979Z,6.13
2023-04-23T05:49:53.569Z,4.15
2023-04-23T05:50:56.289Z,6.32
2023-04-23T05:52:02.930Z,5.38
2023-04-23T05:53:05.507Z,5.55
2023-04-23T05:54:09.125Z,5.75
2023-04-23T05:56:15.560Z,4.60
2023-04-23T05:57:18.302Z,4.88
2023-04-23T05:58:21.866Z,4.38
2023-04-23T06:00:27.838Z,6.40
2023-04-23T06:01:31.036Z,4.57
2023-04-23T06:02:35.156Z,6.00
2023-04-23T06:03:38.419Z,5.90
2023-04-23T06:04:42.700Z,5.07
2023-04-23T06:05:45.763Z,7.22
2023-04-23T06:06:49.697Z,5.40
2023-04-23T06:07:53.949Z,4.30
2023-04-23T06:08:57.590Z,7.03
2023-04-23T06:10:00.283Z,4.30
2023-04-23T06:11:04.059Z,3.97
2023-04-23T06:12:07.006Z,5.00
2023-04-23T06:13:11.370Z,5.70
2023-04-23T06:14:14.954Z,6.88
2023-04-23T06:15:18.628Z,4.63
2023-04-23T06:16:21.327Z,4.35
2023-04-23T06:17:25.241Z,4.47
2023-04-23T06:18:28.125Z,4.78
2023-04-23T06:19:31.737Z,6.07
2023-04-23T06:22:40.027Z,4.90
2023-04-23T06:23:45.316Z,3.30
2023-04-23T06:24:47.965Z,3.90
2023-04-23T06:25:52.099Z,6.03
2023-04-23T06:26:54.899Z,7.53
2023-04-23T06:27:59.490Z,5.25
2023-04-23T06:29:01.985Z,5.10
2023-04-23T06:30:06.521Z,4.13
2023-04-23T06:31:09.211Z,4.70
2023-04-23T06:32:12.987Z,7.47
2023-04-23T06:34:19.059Z,4.47
2023-04-23T06:36:25.043Z,4.82
2023-04-23T06:37:29.824Z,5.65
2023-04-23T06:38:34.148Z,5.20
2023-04-23T06:39:38.350Z,7.10
2023-04-23T06:40:41.996Z,6.40
2023-04-23T06:41:44.629Z,3.55
2023-04-23T06:42:48.213Z,4.38
2023-04-23T06:44:54.484Z,4.30
2023-04-23T06:45:57.221Z,7.97
2023-04-23T06:47:00.749Z,5.63
2023-04-23T06:49:06.905Z,4.07
2023-04-23T06:50:09.845Z,5.35
2023-04-23T06:51:13.810Z,4.15
2023-04-23T06:52:17.502Z,5.68
2023-04-23T06:53:20.040Z,4.45
2023-04-23T06:54:24.298Z,5.43
2023-04-23T06:55:29.754Z,5.32
2023-04-23T06:56:32.624Z,4.32
2023-04-23T06:57:36.305Z,5.13
2023-04-23T06:58:39.437Z,3.35
2023-04-23T06:59:43.555Z,3.38
2023-04-23T07:00:46.388Z,3.92
2023-04-23T07:01:50.083Z,4.30
2023-04-23T07:02:52.873Z,5.07
2023-04-23T07:03:58.219Z,3.78
2023-04-23T07:05:02.117Z,3.67
2023-04-23T07:06:07.201Z,5.07
2023-04-23T07:07:10.932Z,3.80
2023-04-23T07:09:18.601Z,4.70
2023-04-23T07:10:21.498Z,6.60
2023-04-23T07:11:26.571Z,5.03
2023-04-23T07:12:29.194Z,4.50
2023-04-23T07:13:33.017Z,2.78
2023-04-23T07:14:35.663Z,4.72
2023-04-23T07:15:39.564Z,5.43
2023-04-23T07:16:42.210Z,2.72
2023-04-23T07:17:46.387Z,4.00
2023-04-23T07:18:49.626Z,5.25
2023-04-23T07:19:53.258Z,4.15
2023-04-23T07:20:56.460Z,4.10
2023-04-23T07:22:00.131Z,2.55
2023-04-23T07:23:04.356Z,2.90
2023-04-23T07:24:08.458Z,4.53
2023-04-23T07:25:12.537Z,2.38
2023-04-23T07:27:20.030Z,3.13
2023-04-23T07:28:22.767Z,2.97
2023-04-23T07:29:26.302Z,2.53
2023-04-23T07:30:29.104Z,3.35
2023-04-23T07:31:32.918Z,3.15
2023-04-23T07:32:36.778Z,2.85
2023-04-23T07:33:39.312Z,5.32
2023-04-23T07:34:43.730Z,2.67
2023-04-23T07:35:46.657Z,3.65
2023-04-23T07:36:50.647Z,2.53
2023-04-23T07:37:56.258Z,2.50
2023-04-23T07:38:59.919Z,3.70
2023-04-23T07:40:02.687Z,2.17
2023-04-23T07:41:08.108Z,2.38
2023-04-23T07:42:10.922Z,4.25
2023-04-23T07:43:17.149Z,3.08
2023-04-23T07:44:19.798Z,3.42
2023-04-23T07:45:23.508Z,5.03
2023-04-23T07:48:32.053Z,2.95
2023-04-23T07:49:35.781Z,2.75
2023-04-23T07:50:38.420Z,3.47
2023-04-23T07:51:42.163Z,2.65
2023-04-23T07:53:51.336Z,3.08
2023-04-23T07:54:54.468Z,3.05
2023-04-23T07:55:58.327Z,2.63
2023-04-23T07:57:01.460Z,2.60
2023-04-23T07:58:05.214Z,3.17
2023-04-23T07:59:10.222Z,3.95
2023-04-23T08:00:14.590Z,2.60
2023-04-23T08:01:17.526Z,2.92
2023-04-23T08:02:24.022Z,2.45
2023-04-23T08:03:28.351Z,3.78
2023-04-23T08:04:31.764Z,3.45
2023-04-23T08:06:40.241Z,4.20
2023-04-23T08:07:43.964Z,4.80
2023-04-23T08:09:49.827Z,2.67
2023-04-23T08:10:53.481Z,2.38
2023-04-23T08:12:59.242Z,3.25
2023-04-23T08:14:03.114Z,3.72
2023-04-23T08:15:08.225Z,4.93
2023-04-23T08:16:12.101Z,3.17
2023-04-23T08:18:17.974Z,3.53
2023-04-23T08:19:20.868Z,3.60
2023-04-23T08:20:24.422Z,6.28
2023-04-23T08:22:31.451Z,2.45
2023-04-23T08:23:35.158Z,4.13
2023-04-23T08:25:41.504Z,3.10
2023-04-23T08:26:44.113Z,6.95
2023-04-23T08:27:48.177Z,5.18
2023-04-23T08:28:51.121Z,4.20
2023-04-23T08:29:55.082Z,2.38
2023-04-23T08:30:59.424Z,4.95
2023-04-23T08:32:05.494Z,2.50
2023-04-23T08:33:09.655Z,4.22
2023-04-23T08:34:12.515Z,2.63
2023-04-23T08:35:16.527Z,5.82
2023-04-23T08:36:19.495Z,2.65
2023-04-23T08:37:30.974Z,2.33
2023-04-23T08:38:35.338Z,3.60
2023-04-23T08:39:38.943Z,2.67
2023-04-23T08:40:45.991Z,3.97
2023-04-23T08:41:55.934Z,2.10
2023-04-23T08:43:02.420Z,2.28
2023-04-23T08:44:13.642Z,2.50
2023-04-23T08:45:16.347Z,3.03
2023-04-23T08:46:22.662Z,2.60
2023-04-23T08:47:26.421Z,3.85
2023-04-23T08:48:31.487Z,2.20
2023-04-23T08:49:34.884Z,2.70
2023-04-23T08:50:40.333Z,2.75
2023-04-23T08:51:49.024Z,3.05
2023-04-23T08:52:55.047Z,2.80
2023-04-23T08:54:00.070Z,2.15
2023-04-23T08:55:40.810Z,2.53
2023-04-23T09:28:54.041Z,2.88
2023-04-23T09:29:57.941Z,2.20
2023-04-23T09:31:01.523Z,3.17
2023-04-23T09:32:07.901Z,3.03
2023-04-23T09:33:13.479Z,2.95
2023-04-23T09:34:18.546Z,2.50
2023-04-23T09:35:23.519Z,2.13
2023-04-23T09:36:28.323Z,2.80
2023-04-23T09:37:32.332Z,2.75
2023-04-23T09:38:36.394Z,2.70
2023-04-23T09:39:40.460Z,3.03
2023-04-23T09:40:44.257Z,2.63
2023-04-23T09:42:53.313Z,2.28
2023-04-23T09:43:56.270Z,3.40
2023-04-23T09:45:03.612Z,3.33
2023-04-23T09:46:10.964Z,2.17
2023-04-23T09:47:15.989Z,3.30
2023-04-23T09:48:18.557Z,3.95
2023-04-23T09:49:22.202Z,2.70
2023-04-23T09:50:34.989Z,4.82
2023-04-23T09:51:39.649Z,2.63
2023-04-23T09:52:42.549Z,2.92
2023-04-23T09:53:46.362Z,4.55
2023-04-23T09:54:49.115Z,3.42
2023-04-23T09:55:54.960Z,2.40
2023-04-23T09:57:02.220Z,5.45
2023-04-23T09:58:06.615Z,2.47
2023-04-23T09:59:22.999Z,2.50
2023-04-23T10:00:36.571Z,4.68
2023-04-23T10:01:44.552Z,2.60
2023-04-23T10:02:49.507Z,2.50
2023-04-23T10:03:54.059Z,14.18
2023-04-23T10:05:09.990Z,2.53
2023-04-23T10:06:42.387Z,3.30
2023-04-23T10:07:50.693Z,2.30
2023-04-23T10:08:53.287Z,2.63
2023-04-23T10:09:56.762Z,3.25
2023-04-23T10:13:29.257Z,2.10
2023-04-23T10:14:33.118Z,2.25
2023-04-23T10:15:37.769Z,2.88
2023-04-23T10:16:48.696Z,2.65
2023-04-23T10:17:53.503Z,4.00
2023-04-23T10:19:00.228Z,2.53
2023-04-23T10:20:04.389Z,3.35
2023-04-23T10:21:07.565Z,3.53
2023-04-23T10:22:19.029Z,3.92
2023-04-23T10:23:25.174Z,4.40
2023-04-23T10:24:30.878Z,2.42
2023-04-23T10:25:35.150Z,4.03
2023-04-23T10:26:39.263Z,3.47
2023-04-23T10:27:52.659Z,3.60
2023-04-23T10:29:02.066Z,4.00
2023-04-23T10:30:06.863Z,4.00
2023-04-23T10:31:12.316Z,2.83
2023-04-23T10:32:16.277Z,6.38
2023-04-23T10:33:29.404Z,2.92
2023-04-23T10:34:35.276Z,4.90
2023-04-23T10:35:38.295Z,2.63
2023-04-23T10:36:41.795Z,3.00
2023-04-23T10:38:58.016Z,3.72
2023-04-23T10:40:09.527Z,2.50
2023-04-23T10:41:20.583Z,2.65
2023-04-23T10:42:25.237Z,2.30
2023-04-23T10:43:28.033Z,2.47
2023-04-23T10:44:56.703Z,3.83
2023-04-23T10:45:59.001Z,4.05
2023-04-23T10:47:02.570Z,2.03
2023-04-23T10:48:06.185Z,2.70
2023-04-23T10:49:11.587Z,2.10
2023-04-23T10:50:25.585Z,2.67
2023-04-23T10:52:17.151Z,3.25
2023-04-23T10:52:59.750Z,3.65
2023-04-23T10:54:04.429Z,2.45
2023-04-23T10:55:17.742Z,2.08
2023-04-23T10:56:21.102Z,2.35
2023-04-23T10:57:24.792Z,7.22
2023-04-23T10:58:50.789Z,2.20
2023-04-23T10:59:56.425Z,5.18
2023-04-23T11:01:05.472Z,5.03
2023-04-23T11:02:10.886Z,3.30
2023-04-23T11:03:33.501Z,3.45
2023-04-23T11:04:39.092Z,3.58
2023-04-23T11:05:41.664Z,5.20
2023-04-23T11:06:56.750Z,2.70
2023-04-23T11:09:39.516Z,2.17
2023-04-23T11:10:55.671Z,2.92
2023-04-23T11:11:59.483Z,4.82
2023-04-23T11:13:28.143Z,3.63
2023-04-23T11:16:19.788Z,3.20
2023-04-23T11:17:24.780Z,2.25
2023-04-23T11:18:29.445Z,2.50
2023-04-23T11:19:32.178Z,4.78
2023-04-23T11:20:37.693Z,2.83
2023-04-23T11:22:02.942Z,8.82
2023-04-23T11:23:08.403Z,3.22
2023-04-23T11:24:11.359Z,2.88
2023-04-23T11:25:16.620Z,2.35
2023-04-23T11:26:19.352Z,2.40
2023-04-23T11:27:22.832Z,3.63
2023-04-23T11:30:33.853Z,4.82
2023-04-23T11:31:38.192Z,4.05
2023-04-23T11:32:49.415Z,5.38
2023-04-23T11:33:52.368Z,2.67
2023-04-23T11:34:58.070Z,4.10
2023-04-23T11:36:03.151Z,3.78
2023-04-23T11:37:07.557Z,2.47
2023-04-23T11:38:12.680Z,2.60
2023-04-23T11:39:15.375Z,4.05
2023-04-23T11:40:20.664Z,3.40
2023-04-23T11:41:23.747Z,3.00
2023-04-23T11:42:29.128Z,2.55
2023-04-23T11:43:31.853Z,2.97
2023-04-23T11:44:35.771Z,3.05
2023-04-23T11:45:38.375Z,2.38
2023-04-23T11:46:42.037Z,2.60
2023-04-23T11:48:49.484Z,2.42
2023-04-23T11:49:53.188Z,4.47
2023-04-23T11:50:55.875Z,3.78
2023-04-23T11:52:01.233Z,3.03
2023-04-23T11:53:06.122Z,4.78
2023-04-23T11:54:12.265Z,2.70
2023-04-23T11:55:16.633Z,5.20
2023-04-23T11:56:20.276Z,2.58
2023-04-23T11:58:26.365Z,4.38
2023-04-23T11:59:30.541Z,4.25
2023-04-23T12:00:34.216Z,3.45
2023-04-23T12:01:48.504Z,5.88
2023-04-23T12:02:52.427Z,3.33
2023-04-23T12:03:58.652Z,3.17
2023-04-23T12:05:08.486Z,4.30
2023-04-23T12:07:25.905Z,3.15
2023-04-23T12:08:35.189Z,4.93
2023-04-23T12:09:40.686Z,2.60
2023-04-23T12:10:44.681Z,7.05
2023-04-23T12:11:48.520Z,3.65
2023-04-23T12:12:52.814Z,3.60
2023-04-23T12:13:56.440Z,4.63
2023-04-23T12:15:05.990Z,3.75
2023-04-23T12:16:10.500Z,3.47
2023-04-23T12:17:14.981Z,3.50
2023-04-23T12:18:18.211Z,4.05
2023-04-23T12:19:23.385Z,4.35
2023-04-23T12:20:26.060Z,7.45
2023-04-23T12:21:30.145Z,2.33
2023-04-23T12:22:33.673Z,4.18
2023-04-23T12:23:36.998Z,2.88
2023-04-23T12:24:53.712Z,3.03
2023-04-23T12:25:56.962Z,2.80
2023-04-23T12:27:03.158Z,2.97
2023-04-23T12:28:07.861Z,2.72
2023-04-23T12:29:11.332Z,2.80
2023-04-23T12:31:22.124Z,2.50
2023-04-23T12:32:26.270Z,3.38
2023-04-23T12:33:29.955Z,2.28
2023-04-23T12:34:33.628Z,3.85
2023-04-23T12:35:40.675Z,9.52
2023-04-23T12:36:47.693Z,3.72
2023-04-23T12:37:50.178Z,3.08
2023-04-23T12:38:53.874Z,4.22
2023-04-23T12:39:59.786Z,2.90
2023-04-23T12:41:02.561Z,2.38
2023-04-23T12:42:08.544Z,3.55
2023-04-23T12:43:11.109Z,2.80
2023-04-23T12:44:14.740Z,2.60
2023-04-23T12:45:17.240Z,4.95
2023-04-23T12:46:20.835Z,2.38
2023-04-23T12:47:23.677Z,4.38
2023-04-23T12:48:27.283Z,3.05
2023-04-23T12:49:31.697Z,2.55
2023-04-23T12:50:34.292Z,3.28
2023-04-23T12:51:37.993Z,3.15
2023-04-23T12:52:41.838Z,4.35
2023-04-23T12:53:44.451Z,3.10
2023-04-23T12:54:52.321Z,2.67
2023-04-23T12:55:56.604Z,4.55
2023-04-23T12:57:02.202Z,4.20
2023-04-23T12:58:04.935Z,6.78
2023-04-23T12:59:08.569Z,2.88
2023-04-23T13:00:12.905Z,2.97
2023-04-23T13:01:15.805Z,3.58
2023-04-23T13:02:19.564Z,3.35
2023-04-23T13:03:22.486Z,3.08
2023-04-23T13:04:26.340Z,3.15
2023-04-23T13:06:32.153Z,2.90
2023-04-23T13:07:34.779Z,2.83
2023-04-23T13:08:38.668Z,4.35
2023-04-23T13:09:41.392Z,3.97
2023-04-23T13:10:45.329Z,3.45
2023-04-23T13:11:50.078Z,2.90
2023-04-23T13:12:53.623Z,3.25
2023-04-23T13:13:56.409Z,3.65
2023-04-23T13:15:00.059Z,3.67
2023-04-23T13:16:02.955Z,3.17
2023-04-23T13:17:06.646Z,4.63
2023-04-23T13:18:09.353Z,5.25
2023-04-23T13:19:13.698Z,2.80
2023-04-23T13:20:17.573Z,2.67
2023-04-23T13:21:21.247Z,3.35
2023-04-23T13:22:28.564Z,4.47
2023-04-23T13:23:32.218Z,3.22
2023-04-23T13:24:36.346Z,3.58
2023-04-23T13:25:38.827Z,2.95
2023-04-23T13:26:42.570Z,2.55
2023-04-23T13:27:47.610Z,2.60
2023-04-23T13:36:14.077Z,4.13
2023-04-23T13:37:16.995Z,2.90
2023-04-23T13:38:20.537Z,4.30
2023-04-23T13:40:27.583Z,4.35
2023-04-23T13:41:30.299Z,2.90
2023-04-23T13:42:34.511Z,4.72
2023-04-23T13:43:39.729Z,2.80
2023-04-23T13:44:42.224Z,3.78
2023-04-23T13:45:46.636Z,3.88
2023-04-23T13:46:51.196Z,7.45
2023-04-23T13:47:54.846Z,2.40
2023-04-23T13:51:09.064Z,3.05
2023-04-23T13:52:21.172Z,2.72
2023-04-23T13:53:23.749Z,4.13
2023-04-23T13:54:28.088Z,2.50
2023-04-23T13:55:31.646Z,3.67
2023-04-23T14:04:16.827Z,2.92
2023-04-23T14:05:19.597Z,3.40
2023-04-23T14:06:23.240Z,3.50
2023-04-23T14:07:25.886Z,3.53
2023-04-23T14:08:29.354Z,2.58
2023-04-23T14:10:35.801Z,3.67
2023-04-23T14:11:40.690Z,3.75
2023-04-23T14:12:44.303Z,2.92
2023-04-23T14:13:47.283Z,3.47
2023-04-23T14:28:25.555Z,5.15
2023-04-23T14:29:35.516Z,3.88
2023-04-23T14:30:42.574Z,3.20
2023-04-23T14:31:45.173Z,2.65
2023-04-23T14:32:50.346Z,3.60
2023-04-23T14:33:55.336Z,2.60
2023-04-23T14:34:58.940Z,4.43
2023-04-23T14:38:07.122Z,3.67
2023-04-23T14:39:10.909Z,4.65
2023-04-23T14:40:19.734Z,2.70
2023-04-23T14:41:22.943Z,4.20
2023-04-23T14:42:26.409Z,2.85
2023-04-23T14:44:32.291Z,2.95
2023-04-23T14:45:35.045Z,2.92
2023-04-23T14:46:40.140Z,3.90
2023-04-23T14:47:48.068Z,2.72
2023-04-23T14:48:51.637Z,2.60
2023-04-23T14:49:57.773Z,4.38
2023-04-23T14:51:00.384Z,2.72
2023-04-23T14:52:05.347Z,6.25
2023-04-23T14:53:10.239Z,3.17
2023-04-23T14:54:14.040Z,2.83
2023-04-23T14:55:17.275Z,2.85
2023-04-23T14:56:21.023Z,5.13
2023-04-23T14:57:23.693Z,7.72
2023-04-23T14:58:27.462Z,3.50
2023-04-23T14:59:30.921Z,2.83
2023-04-23T15:00:35.458Z,3.35
2023-04-23T15:01:40.497Z,3.08
2023-04-23T15:02:46.333Z,2.60
2023-04-23T15:03:50.215Z,5.85
2023-04-23T15:04:52.944Z,3.30
2023-04-23T15:05:56.628Z,2.80
2023-04-23T15:06:59.599Z,5.10
2023-04-23T15:08:03.404Z,4.28
2023-04-23T15:09:06.939Z,4.95
2023-04-23T15:10:11.784Z,6.25
2023-04-23T15:11:15.681Z,4.78
2023-04-23T15:12:51.073Z,7.07
2023-04-23T15:14:03.797Z,3.67
2023-04-23T15:15:14.326Z,4.25
2023-04-23T15:16:46.728Z,2.38
2023-04-23T15:17:53.049Z,3.55
2023-04-23T15:18:57.461Z,4.38
2023-04-23T15:20:00.470Z,6.30
2023-04-23T15:21:04.256Z,4.63
2023-04-23T15:22:06.894Z,4.57
2023-04-23T15:23:11.200Z,3.08
2023-04-23T15:24:13.774Z,3.33
2023-04-23T15:25:17.803Z,3.67
2023-04-23T15:26:22.316Z,4.78
2023-04-23T15:27:25.209Z,6.15
2023-04-23T15:28:29.033Z,5.90
2023-04-23T15:29:31.728Z,7.25
2023-04-23T15:30:35.288Z,3.75
2023-04-23T15:31:39.014Z,7.80
2023-04-23T15:32:42.124Z,5.18
2023-04-23T15:33:48.038Z,3.50
2023-04-23T15:34:50.496Z,3.85
2023-04-23T15:35:54.071Z,4.65
2023-04-23T15:36:57.586Z,5.32
2023-04-23T15:38:00.600Z,3.38
2023-04-23T15:39:04.256Z,4.65
2023-04-23T15:40:08.471Z,4.25
2023-04-23T15:41:12.796Z,3.53
2023-04-23T15:42:18.287Z,5.45
2023-04-23T15:43:22.043Z,12.75
2023-04-23T15:44:26.191Z,3.58
2023-04-23T15:45:30.218Z,4.22
2023-04-23T15:46:32.823Z,4.60
2023-04-23T15:47:36.501Z,5.05
2023-04-23T15:48:39.285Z,4.10
2023-04-23T15:49:44.389Z,5.85
2023-04-23T15:50:49.543Z,4.00
2023-04-23T15:51:52.121Z,4.80
2023-04-23T15:52:57.715Z,5.40
2023-04-23T15:54:02.401Z,5.30
2023-04-23T15:55:05.766Z,5.68
2023-04-23T15:56:09.233Z,4.93
2023-04-23T15:57:11.786Z,5.38
2023-04-23T15:58:15.296Z,3.97
2023-04-23T16:00:21.325Z,3.35
2023-04-23T16:01:26.966Z,4.82
2023-04-23T16:02:33.539Z,5.60
2023-04-23T16:03:36.321Z,5.40
2023-04-23T16:04:40.411Z,11.20
2023-04-23T16:05:44.968Z,6.65
2023-04-23T16:06:48.623Z,6.80
2023-04-23T16:07:51.734Z,5.63
2023-04-23T16:08:55.224Z,6.40
2023-04-23T16:11:01.670Z,5.97
2023-04-23T16:12:05.609Z,8.57
2023-04-23T16:13:08.090Z,6.68
2023-04-23T16:14:11.785Z,11.63
2023-04-23T16:15:15.061Z,5.78
2023-04-23T16:16:18.700Z,5.70
2023-04-23T16:19:28.425Z,9.35
2023-04-23T16:20:33.773Z,7.10
2023-04-23T16:21:37.744Z,7.25
2023-04-23T16:22:41.428Z,6.32
2023-04-23T16:23:43.884Z,6.38
2023-04-23T16:24:47.593Z,7.72
2023-04-23T16:26:54.016Z,7.25
2023-04-23T16:27:56.742Z,9.00
2023-04-23T16:30:06.780Z,11.90
2023-04-23T16:31:10.573Z,6.78
2023-04-23T16:32:13.332Z,10.95
2023-04-23T16:33:17.137Z,8.55
2023-04-23T16:35:23.155Z,11.77
2023-04-23T16:36:26.252Z,10.45
2023-04-23T16:37:31.300Z,7.45
2023-04-23T16:38:34.094Z,8.20
2023-04-23T16:39:37.704Z,7.95
2023-04-23T16:40:41.424Z,8.15